Terminal Aerodrome Forecast
Issued by NWS

Home | Current Version | Previous Version | Text Only | Print | Product List | Glossary On
Versions: 1 2 3 4 5 6 7 8 9 10 11 12 13 14 15 16
000
FTUS41 KCAR 022327
TAFBHB
TAF
KBHB 022327Z 0300/0324 05009KT 3SM RA BR SCT007 OVC015
     FM030400 03005KT 2SM -DZ BR OVC004
     FM030600 03004KT 3/4SM -DZ BR OVC003
     FM031400 34003KT P6SM OVC008
     FM031600 35004KT P6SM BKN015
     FM031900 36005KT P6SM BKN040=

USA.gov is the U.S. government's official web portal to all federal, state and local government web resources and services.